sensor_id;sensor_type;location;lat;lon;timestamp;P1;durP1;ratioP1;P2;durP2;ratioP2
12665;SDS011;58531;59.050;17.416;2024-03-08T00:00:31;3.83;;;3.00;;
12665;SDS011;58531;59.050;17.416;2024-03-08T00:02:58;5.40;;;2.70;;
12665;SDS011;58531;59.050;17.416;2024-03-08T00:05:26;4.67;;;2.83;;
12665;SDS011;58531;59.050;17.416;2024-03-08T00:07:53;3.87;;;2.93;;
12665;SDS011;58531;59.050;17.416;2024-03-08T00:10:20;3.57;;;2.80;;
12665;SDS011;58531;59.050;17.416;2024-03-08T00:12:47;5.93;;;2.70;;
12665;SDS011;58531;59.050;17.416;2024-03-08T00:15:16;5.07;;;2.70;;
12665;SDS011;58531;59.050;17.416;2024-03-08T00:17:43;4.00;;;2.93;;
12665;SDS011;58531;59.050;17.416;2024-03-08T00:20:11;3.53;;;2.83;;
12665;SDS011;58531;59.050;17.416;2024-03-08T00:22:38;4.83;;;2.47;;
12665;SDS011;58531;59.050;17.416;2024-03-08T00:25:06;4.13;;;2.63;;
12665;SDS011;58531;59.050;17.416;2024-03-08T00:27:34;4.07;;;2.30;;
12665;SDS011;58531;59.050;17.416;2024-03-08T00:30:02;3.57;;;2.37;;
12665;SDS011;58531;59.050;17.416;2024-03-08T00:32:30;3.30;;;2.20;;
12665;SDS011;58531;59.050;17.416;2024-03-08T00:34:57;3.97;;;2.20;;
12665;SDS011;58531;59.050;17.416;2024-03-08T00:37:24;4.33;;;2.80;;
12665;SDS011;58531;59.050;17.416;2024-03-08T00:39:51;4.00;;;2.63;;
12665;SDS011;58531;59.050;17.416;2024-03-08T00:42:19;3.67;;;2.03;;
12665;SDS011;58531;59.050;17.416;2024-03-08T00:44:46;3.80;;;2.23;;
12665;SDS011;58531;59.050;17.416;2024-03-08T00:47:16;5.10;;;2.10;;
12665;SDS011;58531;59.050;17.416;2024-03-08T00:49:44;3.33;;;1.80;;
12665;SDS011;58531;59.050;17.416;2024-03-08T00:52:13;3.83;;;2.30;;
12665;SDS011;58531;59.050;17.416;2024-03-08T00:54:43;3.93;;;2.20;;
12665;SDS011;58531;59.050;17.416;2024-03-08T00:57:10;4.37;;;2.90;;
12665;SDS011;58531;59.050;17.416;2024-03-08T00:59:37;2.50;;;2.03;;
12665;SDS011;58531;59.050;17.416;2024-03-08T01:02:04;3.10;;;2.23;;
12665;SDS011;58531;59.050;17.416;2024-03-08T01:04:34;3.43;;;2.70;;
12665;SDS011;58531;59.050;17.416;2024-03-08T01:07:02;2.80;;;2.00;;
12665;SDS011;58531;59.050;17.416;2024-03-08T01:09:29;4.60;;;2.50;;
12665;SDS011;58531;59.050;17.416;2024-03-08T01:11:56;3.87;;;2.37;;
12665;SDS011;58531;59.050;17.416;2024-03-08T01:14:23;5.50;;;2.60;;
12665;SDS011;58531;59.050;17.416;2024-03-08T01:16:51;5.10;;;2.50;;
12665;SDS011;58531;59.050;17.416;2024-03-08T01:19:20;3.50;;;2.07;;
12665;SDS011;58531;59.050;17.416;2024-03-08T01:21:47;3.47;;;2.10;;
12665;SDS011;58531;59.050;17.416;2024-03-08T01:24:15;3.83;;;2.73;;
12665;SDS011;58531;59.050;17.416;2024-03-08T01:26:50;5.07;;;2.40;;
12665;SDS011;58531;59.050;17.416;2024-03-08T01:29:19;6.13;;;2.30;;
12665;SDS011;58531;59.050;17.416;2024-03-08T01:31:46;2.60;;;2.10;;
12665;SDS011;58531;59.050;17.416;2024-03-08T01:34:13;5.07;;;1.93;;
12665;SDS011;58531;59.050;17.416;2024-03-08T01:36:40;3.50;;;2.17;;
12665;SDS011;58531;59.050;17.416;2024-03-08T01:39:07;5.13;;;2.10;;
12665;SDS011;58531;59.050;17.416;2024-03-08T01:41:36;2.73;;;1.97;;
12665;SDS011;58531;59.050;17.416;2024-03-08T01:44:02;3.60;;;2.17;;
12665;SDS011;58531;59.050;17.416;2024-03-08T01:46:32;4.77;;;2.13;;
12665;SDS011;58531;59.050;17.416;2024-03-08T01:49:01;3.90;;;2.30;;
12665;SDS011;58531;59.050;17.416;2024-03-08T01:51:29;2.97;;;1.73;;
12665;SDS011;58531;59.050;17.416;2024-03-08T01:53:57;3.67;;;2.10;;
12665;SDS011;58531;59.050;17.416;2024-03-08T01:56:26;2.53;;;1.93;;
12665;SDS011;58531;59.050;17.416;2024-03-08T01:58:55;4.00;;;2.20;;
12665;SDS011;58531;59.050;17.416;2024-03-08T02:01:22;3.20;;;2.30;;
12665;SDS011;58531;59.050;17.416;2024-03-08T02:03:49;2.73;;;2.10;;
12665;SDS011;58531;59.050;17.416;2024-03-08T02:06:16;4.10;;;2.70;;
12665;SDS011;58531;59.050;17.416;2024-03-08T02:08:43;3.63;;;2.10;;
12665;SDS011;58531;59.050;17.416;2024-03-08T02:11:11;4.03;;;2.60;;
12665;SDS011;58531;59.050;17.416;2024-03-08T02:13:38;3.80;;;2.37;;
12665;SDS011;58531;59.050;17.416;2024-03-08T02:16:08;5.10;;;2.30;;
12665;SDS011;58531;59.050;17.416;2024-03-08T02:18:35;4.07;;;2.50;;
12665;SDS011;58531;59.050;17.416;2024-03-08T02:21:06;4.57;;;2.33;;
12665;SDS011;58531;59.050;17.416;2024-03-08T02:23:33;5.53;;;2.40;;
12665;SDS011;58531;59.050;17.416;2024-03-08T02:26:00;4.00;;;2.63;;
12665;SDS011;58531;59.050;17.416;2024-03-08T02:28:29;3.60;;;2.43;;
12665;SDS011;58531;59.050;17.416;2024-03-08T02:30:57;4.67;;;2.60;;
12665;SDS011;58531;59.050;17.416;2024-03-08T02:33:24;3.87;;;2.30;;
12665;SDS011;58531;59.050;17.416;2024-03-08T02:35:52;5.07;;;2.30;;
12665;SDS011;58531;59.050;17.416;2024-03-08T02:38:21;4.37;;;2.77;;
12665;SDS011;58531;59.050;17.416;2024-03-08T02:40:50;4.17;;;2.83;;
12665;SDS011;58531;59.050;17.416;2024-03-08T02:43:18;5.23;;;2.30;;
12665;SDS011;58531;59.050;17.416;2024-03-08T02:45:47;3.70;;;2.10;;
12665;SDS011;58531;59.050;17.416;2024-03-08T02:48:15;3.40;;;2.30;;
12665;SDS011;58531;59.050;17.416;2024-03-08T02:50:42;3.93;;;2.53;;
12665;SDS011;58531;59.050;17.416;2024-03-08T02:53:09;2.80;;;2.00;;
12665;SDS011;58531;59.050;17.416;2024-03-08T02:55:38;3.30;;;2.10;;
12665;SDS011;58531;59.050;17.416;2024-03-08T02:58:06;4.40;;;2.07;;
12665;SDS011;58531;59.050;17.416;2024-03-08T03:00:35;4.50;;;2.13;;
12665;SDS011;58531;59.050;17.416;2024-03-08T03:03:03;3.00;;;1.80;;
12665;SDS011;58531;59.050;17.416;2024-03-08T03:05:31;4.70;;;2.03;;
12665;SDS011;58531;59.050;17.416;2024-03-08T03:07:58;4.10;;;1.77;;
12665;SDS011;58531;59.050;17.416;2024-03-08T03:10:25;4.33;;;2.03;;
12665;SDS011;58531;59.050;17.416;2024-03-08T03:12:54;5.30;;;2.07;;
12665;SDS011;58531;59.050;17.416;2024-03-08T03:15:21;3.40;;;1.93;;
12665;SDS011;58531;59.050;17.416;2024-03-08T03:17:48;3.27;;;2.33;;
12665;SDS011;58531;59.050;17.416;2024-03-08T03:20:17;3.87;;;2.00;;
12665;SDS011;58531;59.050;17.416;2024-03-08T03:22:51;3.90;;;2.63;;
12665;SDS011;58531;59.050;17.416;2024-03-08T03:25:18;4.37;;;2.23;;
12665;SDS011;58531;59.050;17.416;2024-03-08T03:27:51;3.63;;;2.27;;
12665;SDS011;58531;59.050;17.416;2024-03-08T03:30:22;2.97;;;2.00;;
12665;SDS011;58531;59.050;17.416;2024-03-08T03:32:52;4.90;;;2.23;;
12665;SDS011;58531;59.050;17.416;2024-03-08T03:35:22;3.97;;;2.07;;
12665;SDS011;58531;59.050;17.416;2024-03-08T03:37:49;3.47;;;2.50;;
12665;SDS011;58531;59.050;17.416;2024-03-08T03:40:26;3.20;;;2.10;;
12665;SDS011;58531;59.050;17.416;2024-03-08T03:42:53;3.43;;;2.27;;
12665;SDS011;58531;59.050;17.416;2024-03-08T03:45:20;3.27;;;2.50;;
12665;SDS011;58531;59.050;17.416;2024-03-08T03:47:49;5.33;;;2.53;;
12665;SDS011;58531;59.050;17.416;2024-03-08T03:50:16;3.10;;;2.20;;
12665;SDS011;58531;59.050;17.416;2024-03-08T03:52:44;3.30;;;2.47;;
12665;SDS011;58531;59.050;17.416;2024-03-08T03:55:11;4.97;;;2.43;;
12665;SDS011;58531;59.050;17.416;2024-03-08T03:57:38;4.57;;;2.27;;
12665;SDS011;58531;59.050;17.416;2024-03-08T04:00:06;4.47;;;3.00;;
12665;SDS011;58531;59.050;17.416;2024-03-08T04:02:37;4.10;;;2.30;;
12665;SDS011;58531;59.050;17.416;2024-03-08T04:05:04;3.67;;;2.10;;
12665;SDS011;58531;59.050;17.416;2024-03-08T04:07:32;4.20;;;2.03;;
12665;SDS011;58531;59.050;17.416;2024-03-08T04:09:59;3.87;;;2.20;;
12665;SDS011;58531;59.050;17.416;2024-03-08T04:12:26;4.10;;;2.73;;
12665;SDS011;58531;59.050;17.416;2024-03-08T04:14:54;4.17;;;2.77;;
12665;SDS011;58531;59.050;17.416;2024-03-08T04:17:22;4.37;;;2.83;;
12665;SDS011;58531;59.050;17.416;2024-03-08T04:19:52;4.47;;;2.47;;
12665;SDS011;58531;59.050;17.416;2024-03-08T04:22:19;4.53;;;2.80;;
12665;SDS011;58531;59.050;17.416;2024-03-08T04:24:46;4.53;;;2.30;;
12665;SDS011;58531;59.050;17.416;2024-03-08T04:27:13;4.57;;;2.40;;
12665;SDS011;58531;59.050;17.416;2024-03-08T04:29:39;5.87;;;2.97;;
12665;SDS011;58531;59.050;17.416;2024-03-08T04:32:06;5.80;;;2.50;;
12665;SDS011;58531;59.050;17.416;2024-03-08T04:34:34;3.77;;;2.53;;
12665;SDS011;58531;59.050;17.416;2024-03-08T04:37:02;4.30;;;2.70;;
12665;SDS011;58531;59.050;17.416;2024-03-08T04:39:30;3.97;;;2.40;;
12665;SDS011;58531;59.050;17.416;2024-03-08T04:41:57;3.77;;;2.40;;
12665;SDS011;58531;59.050;17.416;2024-03-08T04:44:29;4.67;;;2.77;;
12665;SDS011;58531;59.050;17.416;2024-03-08T04:46:56;5.23;;;2.83;;
12665;SDS011;58531;59.050;17.416;2024-03-08T04:49:23;3.50;;;2.30;;
12665;SDS011;58531;59.050;17.416;2024-03-08T04:51:50;4.47;;;2.73;;
12665;SDS011;58531;59.050;17.416;2024-03-08T04:54:18;3.47;;;2.13;;
12665;SDS011;58531;59.050;17.416;2024-03-08T04:56:45;4.67;;;2.63;;
12665;SDS011;58531;59.050;17.416;2024-03-08T04:59:12;6.30;;;2.93;;
12665;SDS011;58531;59.050;17.416;2024-03-08T05:01:39;3.57;;;2.37;;
12665;SDS011;58531;59.050;17.416;2024-03-08T05:04:06;8.00;;;3.03;;
12665;SDS011;58531;59.050;17.416;2024-03-08T05:06:33;4.57;;;2.97;;
12665;SDS011;58531;59.050;17.416;2024-03-08T05:09:00;4.63;;;2.90;;
12665;SDS011;58531;59.050;17.416;2024-03-08T05:11:39;4.53;;;2.67;;
12665;SDS011;58531;59.050;17.416;2024-03-08T05:14:07;8.33;;;3.10;;
12665;SDS011;58531;59.050;17.416;2024-03-08T05:16:34;4.93;;;2.63;;
12665;SDS011;58531;59.050;17.416;2024-03-08T05:19:01;6.27;;;3.10;;
12665;SDS011;58531;59.050;17.416;2024-03-08T05:21:28;5.77;;;2.90;;
12665;SDS011;58531;59.050;17.416;2024-03-08T05:23:55;6.20;;;2.97;;
12665;SDS011;58531;59.050;17.416;2024-03-08T05:26:22;3.13;;;2.47;;
12665;SDS011;58531;59.050;17.416;2024-03-08T05:28:50;6.97;;;3.40;;
12665;SDS011;58531;59.050;17.416;2024-03-08T05:31:18;3.20;;;2.80;;
12665;SDS011;58531;59.050;17.416;2024-03-08T05:33:47;6.80;;;3.33;;
12665;SDS011;58531;59.050;17.416;2024-03-08T05:36:14;6.93;;;3.30;;
12665;SDS011;58531;59.050;17.416;2024-03-08T05:38:41;6.93;;;3.30;;
12665;SDS011;58531;59.050;17.416;2024-03-08T05:41:08;6.43;;;2.93;;
12665;SDS011;58531;59.050;17.416;2024-03-08T05:43:37;5.37;;;3.27;;
12665;SDS011;58531;59.050;17.416;2024-03-08T05:46:05;4.47;;;2.93;;
12665;SDS011;58531;59.050;17.416;2024-03-08T05:48:32;4.40;;;2.97;;
12665;SDS011;58531;59.050;17.416;2024-03-08T05:50:59;4.90;;;2.63;;
12665;SDS011;58531;59.050;17.416;2024-03-08T05:53:27;5.43;;;3.17;;
12665;SDS011;58531;59.050;17.416;2024-03-08T05:55:56;4.87;;;2.67;;
12665;SDS011;58531;59.050;17.416;2024-03-08T05:58:24;4.73;;;2.83;;
12665;SDS011;58531;59.050;17.416;2024-03-08T06:00:53;4.23;;;2.90;;
12665;SDS011;58531;59.050;17.416;2024-03-08T06:03:22;5.40;;;3.40;;
12665;SDS011;58531;59.050;17.416;2024-03-08T06:05:49;5.43;;;3.50;;
12665;SDS011;58531;59.050;17.416;2024-03-08T06:08:15;5.27;;;3.20;;
12665;SDS011;58531;59.050;17.416;2024-03-08T06:10:44;7.07;;;3.20;;
12665;SDS011;58531;59.050;17.416;2024-03-08T06:13:11;4.63;;;2.87;;
12665;SDS011;58531;59.050;17.416;2024-03-08T06:15:38;5.63;;;3.47;;
12665;SDS011;58531;59.050;17.416;2024-03-08T06:18:05;5.73;;;3.40;;
12665;SDS011;58531;59.050;17.416;2024-03-08T06:20:37;6.23;;;3.30;;
12665;SDS011;58531;59.050;17.416;2024-03-08T06:23:04;5.83;;;3.27;;
12665;SDS011;58531;59.050;17.416;2024-03-08T06:25:31;7.57;;;3.63;;
12665;SDS011;58531;59.050;17.416;2024-03-08T06:27:57;6.07;;;3.20;;
12665;SDS011;58531;59.050;17.416;2024-03-08T06:30:24;5.27;;;3.37;;
12665;SDS011;58531;59.050;17.416;2024-03-08T06:32:51;4.90;;;3.10;;
12665;SDS011;58531;59.050;17.416;2024-03-08T06:35:18;5.93;;;3.07;;
12665;SDS011;58531;59.050;17.416;2024-03-08T06:37:46;5.47;;;3.50;;
12665;SDS011;58531;59.050;17.416;2024-03-08T06:40:13;4.63;;;3.00;;
12665;SDS011;58531;59.050;17.416;2024-03-08T06:42:40;4.30;;;2.80;;
12665;SDS011;58531;59.050;17.416;2024-03-08T06:45:08;3.93;;;2.80;;
12665;SDS011;58531;59.050;17.416;2024-03-08T06:47:35;3.60;;;2.80;;
12665;SDS011;58531;59.050;17.416;2024-03-08T06:50:02;6.50;;;3.20;;
12665;SDS011;58531;59.050;17.416;2024-03-08T06:52:31;5.00;;;2.93;;
12665;SDS011;58531;59.050;17.416;2024-03-08T06:54:59;4.47;;;3.00;;
12665;SDS011;58531;59.050;17.416;2024-03-08T06:57:26;5.33;;;3.07;;
12665;SDS011;58531;59.050;17.416;2024-03-08T06:59:54;4.13;;;2.60;;
12665;SDS011;58531;59.050;17.416;2024-03-08T07:02:22;4.43;;;2.67;;
12665;SDS011;58531;59.050;17.416;2024-03-08T07:04:50;4.93;;;3.00;;
12665;SDS011;58531;59.050;17.416;2024-03-08T07:07:18;4.23;;;2.57;;
12665;SDS011;58531;59.050;17.416;2024-03-08T07:09:46;5.17;;;2.73;;
12665;SDS011;58531;59.050;17.416;2024-03-08T07:12:16;4.53;;;3.23;;
12665;SDS011;58531;59.050;17.416;2024-03-08T07:14:43;11.17;;;8.20;;
12665;SDS011;58531;59.050;17.416;2024-03-08T07:17:10;8.00;;;5.87;;
12665;SDS011;58531;59.050;17.416;2024-03-08T07:19:38;5.90;;;3.73;;
12665;SDS011;58531;59.050;17.416;2024-03-08T07:22:05;6.20;;;3.43;;
12665;SDS011;58531;59.050;17.416;2024-03-08T07:24:33;5.70;;;4.00;;
12665;SDS011;58531;59.050;17.416;2024-03-08T07:27:16;8.40;;;5.87;;
12665;SDS011;58531;59.050;17.416;2024-03-08T07:29:43;4.20;;;2.63;;
12665;SDS011;58531;59.050;17.416;2024-03-08T07:32:11;4.30;;;2.87;;
12665;SDS011;58531;59.050;17.416;2024-03-08T07:34:46;3.07;;;2.63;;
12665;SDS011;58531;59.050;17.416;2024-03-08T07:37:14;3.77;;;2.93;;
12665;SDS011;58531;59.050;17.416;2024-03-08T07:39:41;5.13;;;3.03;;
12665;SDS011;58531;59.050;17.416;2024-03-08T07:42:08;5.27;;;2.93;;
12665;SDS011;58531;59.050;17.416;2024-03-08T07:44:38;3.70;;;2.40;;
12665;SDS011;58531;59.050;17.416;2024-03-08T07:47:05;4.20;;;2.67;;
12665;SDS011;58531;59.050;17.416;2024-03-08T07:49:34;4.50;;;3.03;;
12665;SDS011;58531;59.050;17.416;2024-03-08T07:52:02;4.93;;;2.73;;
12665;SDS011;58531;59.050;17.416;2024-03-08T07:54:32;4.20;;;3.07;;
12665;SDS011;58531;59.050;17.416;2024-03-08T07:57:00;3.60;;;2.80;;
12665;SDS011;58531;59.050;17.416;2024-03-08T07:59:28;4.17;;;2.80;;
12665;SDS011;58531;59.050;17.416;2024-03-08T08:01:57;3.47;;;2.33;;
12665;SDS011;58531;59.050;17.416;2024-03-08T08:04:24;5.03;;;2.60;;
12665;SDS011;58531;59.050;17.416;2024-03-08T08:06:52;3.67;;;2.20;;
12665;SDS011;58531;59.050;17.416;2024-03-08T08:09:20;3.17;;;2.53;;
12665;SDS011;58531;59.050;17.416;2024-03-08T08:11:53;3.43;;;2.37;;
12665;SDS011;58531;59.050;17.416;2024-03-08T08:14:20;5.97;;;2.77;;
12665;SDS011;58531;59.050;17.416;2024-03-08T08:16:47;5.37;;;2.70;;
12665;SDS011;58531;59.050;17.416;2024-03-08T08:19:19;4.73;;;2.87;;
12665;SDS011;58531;59.050;17.416;2024-03-08T08:21:46;3.87;;;2.30;;
12665;SDS011;58531;59.050;17.416;2024-03-08T08:24:12;4.37;;;2.50;;
12665;SDS011;58531;59.050;17.416;2024-03-08T08:26:39;5.07;;;2.67;;
12665;SDS011;58531;59.050;17.416;2024-03-08T08:29:06;3.70;;;2.40;;
12665;SDS011;58531;59.050;17.416;2024-03-08T08:31:33;3.00;;;2.70;;
12665;SDS011;58531;59.050;17.416;2024-03-08T08:34:00;4.73;;;2.50;;
12665;SDS011;58531;59.050;17.416;2024-03-08T08:36:29;5.23;;;2.60;;
12665;SDS011;58531;59.050;17.416;2024-03-08T08:38:56;5.30;;;2.60;;
12665;SDS011;58531;59.050;17.416;2024-03-08T08:41:24;4.47;;;2.33;;
12665;SDS011;58531;59.050;17.416;2024-03-08T08:43:52;3.70;;;2.53;;
12665;SDS011;58531;59.050;17.416;2024-03-08T08:46:20;4.23;;;2.70;;
12665;SDS011;58531;59.050;17.416;2024-03-08T08:48:46;3.63;;;2.43;;
12665;SDS011;58531;59.050;17.416;2024-03-08T08:51:13;3.80;;;2.73;;
12665;SDS011;58531;59.050;17.416;2024-03-08T08:53:42;3.50;;;2.60;;
12665;SDS011;58531;59.050;17.416;2024-03-08T08:56:10;4.60;;;2.40;;
12665;SDS011;58531;59.050;17.416;2024-03-08T08:58:38;5.60;;;2.83;;
12665;SDS011;58531;59.050;17.416;2024-03-08T09:01:05;5.60;;;2.83;;
12665;SDS011;58531;59.050;17.416;2024-03-08T09:03:32;3.43;;;2.40;;
12665;SDS011;58531;59.050;17.416;2024-03-08T09:06:01;5.73;;;2.33;;
12665;SDS011;58531;59.050;17.416;2024-03-08T09:08:30;4.90;;;2.43;;
12665;SDS011;58531;59.050;17.416;2024-03-08T09:10:58;4.53;;;2.30;;
12665;SDS011;58531;59.050;17.416;2024-03-08T09:13:26;4.83;;;2.43;;
12665;SDS011;58531;59.050;17.416;2024-03-08T09:15:55;4.20;;;3.40;;
12665;SDS011;58531;59.050;17.416;2024-03-08T09:18:22;3.73;;;2.37;;
12665;SDS011;58531;59.050;17.416;2024-03-08T09:20:50;3.63;;;2.50;;
12665;SDS011;58531;59.050;17.416;2024-03-08T09:23:19;6.13;;;3.13;;
12665;SDS011;58531;59.050;17.416;2024-03-08T09:25:46;4.40;;;2.50;;
12665;SDS011;58531;59.050;17.416;2024-03-08T09:28:14;6.33;;;2.43;;
12665;SDS011;58531;59.050;17.416;2024-03-08T09:30:41;4.13;;;2.30;;
12665;SDS011;58531;59.050;17.416;2024-03-08T09:33:08;3.57;;;2.53;;
12665;SDS011;58531;59.050;17.416;2024-03-08T09:35:35;3.40;;;2.57;;
12665;SDS011;58531;59.050;17.416;2024-03-08T09:38:02;3.13;;;1.60;;
12665;SDS011;58531;59.050;17.416;2024-03-08T09:40:29;4.07;;;1.90;;
12665;SDS011;58531;59.050;17.416;2024-03-08T09:42:57;3.87;;;2.10;;
12665;SDS011;58531;59.050;17.416;2024-03-08T09:45:25;4.40;;;2.63;;
12665;SDS011;58531;59.050;17.416;2024-03-08T09:47:54;2.10;;;1.90;;
12665;SDS011;58531;59.050;17.416;2024-03-08T09:50:21;2.73;;;1.90;;
12665;SDS011;58531;59.050;17.416;2024-03-08T09:52:48;3.63;;;1.83;;
12665;SDS011;58531;59.050;17.416;2024-03-08T09:55:16;3.47;;;2.13;;
12665;SDS011;58531;59.050;17.416;2024-03-08T09:57:47;3.00;;;1.97;;
12665;SDS011;58531;59.050;17.416;2024-03-08T10:00:32;3.87;;;2.00;;
12665;SDS011;58531;59.050;17.416;2024-03-08T10:03:00;4.13;;;2.30;;
12665;SDS011;58531;59.050;17.416;2024-03-08T10:05:28;3.17;;;2.13;;
12665;SDS011;58531;59.050;17.416;2024-03-08T10:07:58;4.37;;;2.40;;
12665;SDS011;58531;59.050;17.416;2024-03-08T10:10:25;3.90;;;2.40;;
12665;SDS011;58531;59.050;17.416;2024-03-08T10:12:51;2.67;;;2.17;;
12665;SDS011;58531;59.050;17.416;2024-03-08T10:15:19;3.30;;;1.87;;
12665;SDS011;58531;59.050;17.416;2024-03-08T10:17:50;2.77;;;1.73;;
12665;SDS011;58531;59.050;17.416;2024-03-08T10:20:18;3.90;;;2.17;;
12665;SDS011;58531;59.050;17.416;2024-03-08T10:22:46;3.93;;;2.20;;
12665;SDS011;58531;59.050;17.416;2024-03-08T10:25:13;3.10;;;1.90;;
12665;SDS011;58531;59.050;17.416;2024-03-08T10:27:40;2.23;;;1.87;;
12665;SDS011;58531;59.050;17.416;2024-03-08T10:30:08;3.87;;;1.70;;
12665;SDS011;58531;59.050;17.416;2024-03-08T10:32:38;3.10;;;1.80;;
12665;SDS011;58531;59.050;17.416;2024-03-08T10:35:08;7.83;;;3.27;;
12665;SDS011;58531;59.050;17.416;2024-03-08T10:37:38;3.27;;;2.13;;
12665;SDS011;58531;59.050;17.416;2024-03-08T10:40:13;3.80;;;1.90;;
12665;SDS011;58531;59.050;17.416;2024-03-08T10:42:47;2.83;;;2.30;;
12665;SDS011;58531;59.050;17.416;2024-03-08T10:45:22;5.73;;;2.30;;
12665;SDS011;58531;59.050;17.416;2024-03-08T10:48:04;3.63;;;2.10;;
12665;SDS011;58531;59.050;17.416;2024-03-08T10:50:43;3.40;;;1.83;;
12665;SDS011;58531;59.050;17.416;2024-03-08T10:53:12;3.23;;;1.90;;
12665;SDS011;58531;59.050;17.416;2024-03-08T10:55:40;3.97;;;1.93;;
12665;SDS011;58531;59.050;17.416;2024-03-08T10:58:08;2.33;;;1.73;;
12665;SDS011;58531;59.050;17.416;2024-03-08T11:00:35;2.13;;;1.70;;
12665;SDS011;58531;59.050;17.416;2024-03-08T11:03:03;3.43;;;2.67;;
12665;SDS011;58531;59.050;17.416;2024-03-08T11:05:36;5.37;;;2.73;;
12665;SDS011;58531;59.050;17.416;2024-03-08T11:08:08;4.17;;;2.27;;
12665;SDS011;58531;59.050;17.416;2024-03-08T11:10:48;4.30;;;1.90;;
12665;SDS011;58531;59.050;17.416;2024-03-08T11:13:34;3.90;;;2.07;;
12665;SDS011;58531;59.050;17.416;2024-03-08T11:16:02;3.80;;;2.17;;
12665;SDS011;58531;59.050;17.416;2024-03-08T11:18:35;2.87;;;2.30;;
12665;SDS011;58531;59.050;17.416;2024-03-08T11:21:02;5.27;;;3.03;;
12665;SDS011;58531;59.050;17.416;2024-03-08T11:23:33;3.43;;;1.73;;
12665;SDS011;58531;59.050;17.416;2024-03-08T11:26:01;3.27;;;1.93;;
12665;SDS011;58531;59.050;17.416;2024-03-08T11:28:32;4.13;;;2.20;;
12665;SDS011;58531;59.050;17.416;2024-03-08T11:33:49;2.40;;;1.83;;
12665;SDS011;58531;59.050;17.416;2024-03-08T11:36:20;2.63;;;2.03;;
12665;SDS011;58531;59.050;17.416;2024-03-08T11:38:49;2.70;;;1.60;;
12665;SDS011;58531;59.050;17.416;2024-03-08T11:41:18;3.83;;;2.10;;
12665;SDS011;58531;59.050;17.416;2024-03-08T11:43:46;4.80;;;1.90;;
12665;SDS011;58531;59.050;17.416;2024-03-08T11:46:13;3.87;;;2.40;;
12665;SDS011;58531;59.050;17.416;2024-03-08T11:48:41;4.47;;;2.87;;
12665;SDS011;58531;59.050;17.416;2024-03-08T11:51:09;3.67;;;2.60;;
12665;SDS011;58531;59.050;17.416;2024-03-08T11:53:38;3.77;;;1.90;;
12665;SDS011;58531;59.050;17.416;2024-03-08T11:56:08;3.47;;;1.93;;
12665;SDS011;58531;59.050;17.416;2024-03-08T11:58:36;3.60;;;1.90;;
12665;SDS011;58531;59.050;17.416;2024-03-08T12:01:04;2.40;;;1.67;;
12665;SDS011;58531;59.050;17.416;2024-03-08T12:03:32;3.00;;;1.70;;
12665;SDS011;58531;59.050;17.416;2024-03-08T12:05:59;3.57;;;1.80;;
12665;SDS011;58531;59.050;17.416;2024-03-08T12:08:26;3.27;;;1.57;;
12665;SDS011;58531;59.050;17.416;2024-03-08T12:10:54;2.53;;;1.77;;
12665;SDS011;58531;59.050;17.416;2024-03-08T12:13:26;3.97;;;1.93;;
12665;SDS011;58531;59.050;17.416;2024-03-08T12:15:55;2.37;;;1.90;;
12665;SDS011;58531;59.050;17.416;2024-03-08T12:18:24;3.37;;;1.63;;
12665;SDS011;58531;59.050;17.416;2024-03-08T12:20:51;3.03;;;1.87;;
12665;SDS011;58531;59.050;17.416;2024-03-08T12:23:18;2.83;;;1.80;;
12665;SDS011;58531;59.050;17.416;2024-03-08T12:25:45;2.83;;;1.90;;
12665;SDS011;58531;59.050;17.416;2024-03-08T12:28:13;3.43;;;2.17;;
12665;SDS011;58531;59.050;17.416;2024-03-08T12:30:46;2.73;;;1.70;;
12665;SDS011;58531;59.050;17.416;2024-03-08T12:33:14;3.27;;;1.83;;
12665;SDS011;58531;59.050;17.416;2024-03-08T12:35:49;3.80;;;2.80;;
12665;SDS011;58531;59.050;17.416;2024-03-08T12:38:19;2.20;;;1.93;;
12665;SDS011;58531;59.050;17.416;2024-03-08T12:40:50;2.13;;;1.83;;
12665;SDS011;58531;59.050;17.416;2024-03-08T12:43:22;2.63;;;1.73;;
12665;SDS011;58531;59.050;17.416;2024-03-08T12:45:50;2.20;;;1.67;;
12665;SDS011;58531;59.050;17.416;2024-03-08T12:48:17;3.37;;;1.90;;
12665;SDS011;58531;59.050;17.416;2024-03-08T12:50:45;5.43;;;2.00;;
12665;SDS011;58531;59.050;17.416;2024-03-08T12:53:13;3.03;;;1.93;;
12665;SDS011;58531;59.050;17.416;2024-03-08T12:55:40;3.47;;;2.00;;
12665;SDS011;58531;59.050;17.416;2024-03-08T12:58:07;3.80;;;2.40;;
12665;SDS011;58531;59.050;17.416;2024-03-08T13:00:33;2.87;;;1.80;;
12665;SDS011;58531;59.050;17.416;2024-03-08T13:03:03;3.50;;;2.00;;
12665;SDS011;58531;59.050;17.416;2024-03-08T13:05:31;2.10;;;1.70;;
12665;SDS011;58531;59.050;17.416;2024-03-08T13:07:58;2.87;;;1.90;;
12665;SDS011;58531;59.050;17.416;2024-03-08T13:10:25;2.43;;;2.23;;
12665;SDS011;58531;59.050;17.416;2024-03-08T13:12:52;3.73;;;1.87;;
12665;SDS011;58531;59.050;17.416;2024-03-08T13:15:19;2.47;;;1.90;;
12665;SDS011;58531;59.050;17.416;2024-03-08T13:17:46;2.77;;;1.80;;
12665;SDS011;58531;59.050;17.416;2024-03-08T13:20:15;2.90;;;1.60;;
12665;SDS011;58531;59.050;17.416;2024-03-08T13:22:45;5.90;;;2.30;;
12665;SDS011;58531;59.050;17.416;2024-03-08T13:25:12;7.13;;;3.10;;
12665;SDS011;58531;59.050;17.416;2024-03-08T13:27:39;2.83;;;1.90;;
12665;SDS011;58531;59.050;17.416;2024-03-08T13:30:08;5.03;;;2.20;;
12665;SDS011;58531;59.050;17.416;2024-03-08T13:32:39;3.20;;;2.10;;
12665;SDS011;58531;59.050;17.416;2024-03-08T13:35:08;3.10;;;2.10;;
12665;SDS011;58531;59.050;17.416;2024-03-08T13:37:39;3.87;;;2.30;;
12665;SDS011;58531;59.050;17.416;2024-03-08T13:40:07;4.17;;;2.03;;
12665;SDS011;58531;59.050;17.416;2024-03-08T13:42:39;2.53;;;1.60;;
12665;SDS011;58531;59.050;17.416;2024-03-08T13:45:06;3.50;;;1.77;;
12665;SDS011;58531;59.050;17.416;2024-03-08T13:47:36;4.37;;;1.80;;
12665;SDS011;58531;59.050;17.416;2024-03-08T13:50:04;6.17;;;2.67;;
12665;SDS011;58531;59.050;17.416;2024-03-08T13:52:32;3.17;;;2.03;;
12665;SDS011;58531;59.050;17.416;2024-03-08T13:55:01;5.40;;;2.00;;
12665;SDS011;58531;59.050;17.416;2024-03-08T13:57:30;4.17;;;2.10;;
12665;SDS011;58531;59.050;17.416;2024-03-08T13:59:57;4.70;;;2.10;;
12665;SDS011;58531;59.050;17.416;2024-03-08T14:02:24;3.53;;;2.00;;
12665;SDS011;58531;59.050;17.416;2024-03-08T14:04:53;4.67;;;1.90;;
12665;SDS011;58531;59.050;17.416;2024-03-08T14:07:20;3.57;;;2.30;;
12665;SDS011;58531;59.050;17.416;2024-03-08T14:09:48;3.20;;;2.00;;
12665;SDS011;58531;59.050;17.416;2024-03-08T14:12:15;4.07;;;2.00;;
12665;SDS011;58531;59.050;17.416;2024-03-08T14:14:43;2.30;;;1.60;;
12665;SDS011;58531;59.050;17.416;2024-03-08T14:17:10;3.60;;;2.47;;
12665;SDS011;58531;59.050;17.416;2024-03-08T14:19:42;4.33;;;1.80;;
12665;SDS011;58531;59.050;17.416;2024-03-08T14:22:08;3.07;;;1.83;;
12665;SDS011;58531;59.050;17.416;2024-03-08T14:24:39;3.67;;;1.67;;
12665;SDS011;58531;59.050;17.416;2024-03-08T14:27:07;4.10;;;2.70;;
12665;SDS011;58531;59.050;17.416;2024-03-08T14:29:36;5.10;;;2.90;;
12665;SDS011;58531;59.050;17.416;2024-03-08T14:32:03;3.37;;;2.30;;
12665;SDS011;58531;59.050;17.416;2024-03-08T14:34:31;4.90;;;1.97;;
12665;SDS011;58531;59.050;17.416;2024-03-08T14:36:59;3.87;;;2.07;;
12665;SDS011;58531;59.050;17.416;2024-03-08T14:39:29;4.20;;;2.20;;
12665;SDS011;58531;59.050;17.416;2024-03-08T14:41:58;4.47;;;2.10;;